createdAt,value
2019-04-05T00:01:04.565Z,12.27
2019-04-05T00:03:34.144Z,9.33
2019-04-05T00:06:02.726Z,10.13
2019-04-05T00:08:31.180Z,13.03
2019-04-05T00:11:00.850Z,11.80
2019-04-05T00:13:29.309Z,8.90
2019-04-05T00:15:58.055Z,15.13
2019-04-05T00:18:26.620Z,11.20
2019-04-05T00:20:55.613Z,6.60
2019-04-05T00:23:24.177Z,12.13
2019-04-05T00:25:53.600Z,10.33
2019-04-05T00:28:21.801Z,10.77
2019-04-05T00:30:50.506Z,8.80
2019-04-05T00:33:19.293Z,12.57
2019-04-05T00:35:47.917Z,10.20
2019-04-05T00:38:16.721Z,17.03
2019-04-05T00:40:45.453Z,11.97
2019-04-05T00:43:13.911Z,14.30
2019-04-05T00:45:42.446Z,11.28
2019-04-05T00:48:10.677Z,12.43
2019-04-05T00:50:40.096Z,7.83
2019-04-05T00:53:08.478Z,11.37
2019-04-05T00:55:38.094Z,13.07
2019-04-05T00:58:06.430Z,9.73
2019-04-05T01:00:34.781Z,14.93
2019-04-05T01:03:03.427Z,15.23
2019-04-05T01:05:32.016Z,7.83
2019-04-05T01:08:00.550Z,9.17
2019-04-05T01:10:29.169Z,10.90
2019-04-05T01:12:58.154Z,16.27
2019-04-05T01:15:26.878Z,13.00
2019-04-05T01:17:55.240Z,13.83
2019-04-05T01:20:25.305Z,9.97
2019-04-05T01:22:54.242Z,11.83
2019-04-05T01:25:23.288Z,10.83
2019-04-05T01:27:52.130Z,13.50
2019-04-05T01:30:20.542Z,12.50
2019-04-05T01:32:48.959Z,13.87
2019-04-05T01:35:17.590Z,11.77
2019-04-05T01:37:46.133Z,15.10
2019-04-05T01:40:14.956Z,13.97
2019-04-05T01:42:43.537Z,8.37
2019-04-05T01:45:12.242Z,6.10
2019-04-05T01:47:41.097Z,5.57
2019-04-05T01:50:09.618Z,10.67
2019-04-05T01:52:38.668Z,7.10
2019-04-05T01:55:08.895Z,6.03
2019-04-05T01:57:37.582Z,8.83
2019-04-05T02:00:06.557Z,7.70
2019-04-05T02:02:35.669Z,4.90
2019-04-05T02:05:05.743Z,11.57
2019-04-05T02:07:34.246Z,9.27
2019-04-05T02:10:03.133Z,11.53
2019-04-05T02:12:31.778Z,8.90
2019-04-05T02:15:00.329Z,8.07
2019-04-05T02:17:29.270Z,12.47
2019-04-05T02:19:58.008Z,6.90
2019-04-05T02:22:26.589Z,5.10
2019-04-05T02:24:55.078Z,7.00
2019-04-05T02:27:23.453Z,9.63
2019-04-05T02:29:52.499Z,5.47
2019-04-05T02:32:20.853Z,14.90
2019-04-05T02:34:49.872Z,6.77
2019-04-05T02:37:18.709Z,11.80
2019-04-05T02:39:47.491Z,11.13
2019-04-05T02:42:15.986Z,8.97
2019-04-05T02:44:44.701Z,16.17
2019-04-05T02:47:13.466Z,10.23
2019-04-05T02:49:44.249Z,13.53
2019-04-05T02:52:14.398Z,10.30
2019-04-05T02:54:44.090Z,3.77
2019-04-05T02:57:12.741Z,13.17
2019-04-05T02:59:41.726Z,10.83
2019-04-05T03:02:10.473Z,13.80
2019-04-05T03:04:39.016Z,9.50
2019-04-05T03:07:08.009Z,9.27
2019-04-05T03:09:36.851Z,13.87
2019-04-05T03:12:06.105Z,11.03
2019-04-05T03:14:35.203Z,7.53
2019-04-05T03:17:03.630Z,14.10
2019-04-05T03:19:32.777Z,6.60
2019-04-05T03:22:03.178Z,8.40
2019-04-05T03:24:33.825Z,5.70
2019-04-05T03:27:05.187Z,7.60
2019-04-05T03:29:34.093Z,9.63
2019-04-05T03:32:03.341Z,11.80
2019-04-05T03:34:32.917Z,7.60
2019-04-05T03:37:01.605Z,7.50
2019-04-05T03:39:30.296Z,17.00
2019-04-05T03:41:58.712Z,8.47
2019-04-05T03:44:27.328Z,7.63
2019-04-05T03:46:57.933Z,10.70
2019-04-05T03:49:26.818Z,12.37
2019-04-05T03:51:55.559Z,13.30
2019-04-05T03:54:24.627Z,8.53
2019-04-05T03:56:52.989Z,7.30
2019-04-05T03:59:21.590Z,9.77
2019-04-05T04:01:50.266Z,10.07
2019-04-05T04:04:19.152Z,13.50
2019-04-05T04:06:48.149Z,8.87
2019-04-05T04:09:17.388Z,8.90
2019-04-05T04:11:46.761Z,11.33
2019-04-05T04:14:16.360Z,11.33
2019-04-05T04:16:45.165Z,7.97
2019-04-05T04:19:14.658Z,16.47
2019-04-05T04:22:08.770Z,8.63
2019-04-05T04:24:37.883Z,6.23
2019-04-05T04:27:07.219Z,9.87
2019-04-05T04:29:35.889Z,9.70
2019-04-05T04:32:04.921Z,7.87
2019-04-05T04:34:33.459Z,13.60
2019-04-05T04:37:01.951Z,15.43
2019-04-05T04:39:30.492Z,9.20
2019-04-05T04:41:58.891Z,12.43
2019-04-05T04:44:27.613Z,11.67
2019-04-05T04:46:56.632Z,12.60
2019-04-05T04:49:25.285Z,8.80
2019-04-05T04:51:54.063Z,13.00
2019-04-05T04:54:22.694Z,11.17
2019-04-05T04:56:51.659Z,14.93
2019-04-05T04:59:20.310Z,15.23
2019-04-05T05:01:48.549Z,8.77
2019-04-05T05:04:17.041Z,9.80
2019-04-05T05:06:45.603Z,10.00
2019-04-05T05:09:14.191Z,7.10
2019-04-05T05:11:42.997Z,12.90
2019-04-05T05:14:11.874Z,17.97
2019-04-05T05:16:40.582Z,7.47
2019-04-05T05:19:09.480Z,12.13
2019-04-05T05:21:38.286Z,9.63
2019-04-05T05:24:06.897Z,12.40
2019-04-05T05:26:35.625Z,15.50
2019-04-05T05:29:04.629Z,7.60
2019-04-05T05:31:33.730Z,8.80
2019-04-05T05:34:02.170Z,5.17
2019-04-05T05:36:30.710Z,8.57
2019-04-05T05:38:59.205Z,5.87
2019-04-05T05:41:27.674Z,5.60
2019-04-05T05:43:56.631Z,7.20
2019-04-05T05:46:25.389Z,7.07
2019-04-05T05:48:54.875Z,6.07
2019-04-05T05:51:24.434Z,6.60
2019-04-05T05:53:52.981Z,6.43
2019-04-05T05:56:21.605Z,5.73
2019-04-05T05:58:50.184Z,3.20
2019-04-05T06:01:18.634Z,4.00
2019-04-05T06:03:46.993Z,4.90
2019-04-05T06:06:15.377Z,5.83
2019-04-05T06:08:43.822Z,6.10
2019-04-05T06:11:12.482Z,6.20
2019-04-05T06:13:41.532Z,5.30
2019-04-05T06:16:10.601Z,7.90
2019-04-05T06:18:39.098Z,8.43
2019-04-05T06:21:07.511Z,4.57
2019-04-05T06:23:36.217Z,6.70
2019-04-05T06:26:04.989Z,2.53
2019-04-05T06:28:33.683Z,5.63
2019-04-05T06:31:02.303Z,4.73
2019-04-05T06:35:39.525Z,5.30
2019-04-05T06:36:01.137Z,5.03
2019-04-05T06:38:29.541Z,5.63
2019-04-05T06:40:57.892Z,6.10
2019-04-05T06:43:26.322Z,4.67
2019-04-05T06:45:55.175Z,5.93
2019-04-05T06:48:23.934Z,6.70
2019-04-05T06:50:54.497Z,3.10
2019-04-05T06:53:22.845Z,3.27
2019-04-05T06:55:51.155Z,4.57
2019-04-05T06:58:20.165Z,6.83
2019-04-05T07:00:57.010Z,4.90
2019-04-05T07:03:19.698Z,3.20
2019-04-05T07:05:48.001Z,4.78
2019-04-05T07:08:18.351Z,4.70
2019-04-05T07:10:47.290Z,3.57
2019-04-05T07:13:15.848Z,4.40
2019-04-05T07:15:48.221Z,4.97
2019-04-05T07:18:16.798Z,4.93
2019-04-05T07:20:45.217Z,5.27
2019-04-05T07:23:13.766Z,4.33
2019-04-05T07:25:42.329Z,4.37
2019-04-05T07:28:10.857Z,5.03
2019-04-05T07:30:39.525Z,2.63
2019-04-05T07:33:08.277Z,2.63
2019-04-05T07:35:37.114Z,6.20
2019-04-05T07:38:05.613Z,4.90
2019-04-05T07:40:34.529Z,3.47
2019-04-05T07:43:06.509Z,1.17
2019-04-05T07:45:35.501Z,2.17
2019-04-05T07:48:04.190Z,1.13
2019-04-05T07:50:32.521Z,5.20
2019-04-05T07:53:00.812Z,7.77
2019-04-05T07:55:29.323Z,1.80
2019-04-05T07:57:58.317Z,5.03
2019-04-05T08:00:43.898Z,2.10
2019-04-05T08:03:12.893Z,2.17
2019-04-05T08:05:41.470Z,2.20
2019-04-05T08:08:12.054Z,4.73
2019-04-05T08:10:41.711Z,8.30
2019-04-05T08:13:12.095Z,3.73
2019-04-05T08:15:40.538Z,2.03
2019-04-05T08:18:09.657Z,2.87
2019-04-05T08:20:38.218Z,1.67
2019-04-05T08:23:06.929Z,2.87
2019-04-05T08:25:35.691Z,6.07
2019-04-05T08:28:06.748Z,2.97
2019-04-05T08:30:34.798Z,6.37
2019-04-05T08:33:03.309Z,1.70
2019-04-05T08:35:31.953Z,2.90
2019-04-05T08:38:00.945Z,2.83
2019-04-05T08:40:29.646Z,3.70
2019-04-05T08:42:58.566Z,1.33
2019-04-05T08:45:26.957Z,2.97
2019-04-05T08:47:55.581Z,5.20
2019-04-05T08:50:24.010Z,1.93
2019-04-05T08:52:52.334Z,2.90
2019-04-05T08:55:20.678Z,5.00
2019-04-05T08:57:49.166Z,2.50
2019-04-05T09:00:17.468Z,2.50
2019-04-05T09:02:46.376Z,4.50
2019-04-05T09:05:15.760Z,3.03
2019-04-05T09:07:44.221Z,1.70
2019-04-05T09:10:13.018Z,2.20
2019-04-05T09:12:41.898Z,2.50
2019-04-05T09:15:10.445Z,3.50
2019-04-05T09:17:38.844Z,3.80
2019-04-05T09:20:08.279Z,3.20
2019-04-05T09:22:36.984Z,1.93
2019-04-05T09:25:12.989Z,2.60
2019-04-05T09:27:41.789Z,4.90
2019-04-05T09:30:11.028Z,4.80
2019-04-05T09:32:39.844Z,6.03
2019-04-05T09:35:09.392Z,2.13
2019-04-05T09:37:38.569Z,3.80
2019-04-05T09:40:07.702Z,3.37
2019-04-05T09:42:36.319Z,1.67
2019-04-05T09:45:07.135Z,3.17
2019-04-05T09:47:36.150Z,1.83
2019-04-05T09:50:05.190Z,3.97
2019-04-05T09:52:33.741Z,5.83
2019-04-05T09:55:02.616Z,3.57
2019-04-05T09:57:32.159Z,5.57
2019-04-05T10:00:00.837Z,2.47
2019-04-05T10:02:31.812Z,2.30
2019-04-05T10:05:00.362Z,1.03
2019-04-05T10:07:29.114Z,3.17
2019-04-05T10:09:57.418Z,1.77
2019-04-05T10:12:26.040Z,6.67
2019-04-05T10:14:54.745Z,2.77
2019-04-05T10:17:24.426Z,5.43
2019-04-05T10:19:53.200Z,4.43
2019-04-05T10:22:22.031Z,3.03
2019-04-05T10:24:50.726Z,2.87
2019-04-05T10:27:19.318Z,2.63
2019-04-05T10:29:49.505Z,2.37
2019-04-05T10:32:17.968Z,3.47
2019-04-05T10:34:46.530Z,1.87
2019-04-05T10:37:15.120Z,1.30
2019-04-05T10:39:43.746Z,2.53
2019-04-05T10:42:17.119Z,3.12
2019-04-05T10:44:45.987Z,3.23
2019-04-05T10:47:14.387Z,3.67
2019-04-05T10:49:43.127Z,5.70
2019-04-05T10:52:12.563Z,2.73
2019-04-05T10:54:42.086Z,3.03
2019-04-05T10:57:11.308Z,3.40
2019-04-05T10:59:39.923Z,5.23
2019-04-05T11:02:08.702Z,1.20
2019-04-05T11:04:37.193Z,1.97
2019-04-05T11:07:05.908Z,1.20
2019-04-05T11:09:34.317Z,4.17
2019-04-05T11:12:03.809Z,3.70
2019-04-05T11:14:32.641Z,1.73
2019-04-05T11:17:04.522Z,5.23
2019-04-05T11:19:32.656Z,4.33
2019-04-05T11:22:01.551Z,3.07
2019-04-05T11:24:30.137Z,5.27
2019-04-05T11:26:59.040Z,3.03
2019-04-05T11:29:27.916Z,6.37
2019-04-05T11:31:57.689Z,2.80
2019-04-05T11:34:26.815Z,3.00
2019-04-05T11:36:55.833Z,2.40
2019-04-05T11:39:25.265Z,3.50
2019-04-05T11:41:55.462Z,2.83
2019-04-05T11:44:24.445Z,5.53
2019-04-05T11:46:54.046Z,1.87
2019-04-05T11:49:22.762Z,4.17
2019-04-05T11:51:51.238Z,14.93
2019-04-05T11:54:20.406Z,4.53
2019-04-05T11:56:48.834Z,2.57
2019-04-05T11:59:17.986Z,1.87
2019-04-05T12:02:14.933Z,3.23
2019-04-05T12:04:43.930Z,1.53
2019-04-05T12:07:12.921Z,3.87
2019-04-05T12:09:41.922Z,2.83
2019-04-05T12:12:11.434Z,2.23
2019-04-05T12:14:39.781Z,4.40
2019-04-05T12:17:09.811Z,1.07
2019-04-05T12:19:38.408Z,3.80
2019-04-05T12:22:09.203Z,2.20
2019-04-05T12:24:38.943Z,4.33
2019-04-05T12:27:07.215Z,7.33
2019-04-05T12:29:35.589Z,1.70
2019-04-05T12:32:04.367Z,0.90
2019-04-05T12:34:32.918Z,1.47
2019-04-05T12:37:01.599Z,1.20
2019-04-05T12:39:30.874Z,2.23
2019-04-05T12:42:03.493Z,1.62
2019-04-05T12:44:32.321Z,1.47
2019-04-05T12:47:00.960Z,0.97
2019-04-05T12:49:29.650Z,1.47
2019-04-05T12:51:58.206Z,2.17
2019-04-05T12:54:27.172Z,3.43
2019-04-05T12:56:57.867Z,2.70
2019-04-05T12:59:26.759Z,3.57
2019-04-05T13:01:56.299Z,3.57
2019-04-05T13:04:27.217Z,1.67
2019-04-05T13:06:58.447Z,2.17
2019-04-05T13:09:26.921Z,3.92
2019-04-05T13:11:57.520Z,1.00
2019-04-05T13:14:26.989Z,2.07
2019-04-05T13:16:55.642Z,1.07
2019-04-05T13:19:24.435Z,1.90
2019-04-05T13:21:53.157Z,2.72
2019-04-05T13:24:21.832Z,4.35
2019-04-05T13:26:50.528Z,2.10
2019-04-05T13:29:19.773Z,6.40
2019-04-05T13:31:49.278Z,2.10
2019-04-05T13:34:18.938Z,5.15
2019-04-05T13:36:47.574Z,4.47
2019-04-05T13:39:16.358Z,2.37
2019-04-05T13:41:44.989Z,4.70
2019-04-05T13:44:14.345Z,1.52
2019-04-05T13:46:43.121Z,4.30
2019-04-05T13:49:12.180Z,3.35
2019-04-05T13:51:42.116Z,3.30
2019-04-05T13:54:11.398Z,4.00
2019-04-05T13:56:41.526Z,4.35
2019-04-05T13:59:10.209Z,3.45
2019-04-05T14:01:39.048Z,2.55
2019-04-05T14:04:07.501Z,4.15
2019-04-05T14:06:36.259Z,4.22
2019-04-05T14:09:06.361Z,3.87
2019-04-05T14:11:35.020Z,2.40
2019-04-05T14:14:03.936Z,2.87
2019-04-05T14:16:33.769Z,4.78
2019-04-05T14:19:02.456Z,3.62
2019-04-05T14:21:40.399Z,3.97
2019-04-05T14:24:04.080Z,4.57
2019-04-05T14:26:32.811Z,4.47
2019-04-05T14:29:03.724Z,5.27
2019-04-05T14:31:32.573Z,2.77
2019-04-05T14:34:00.966Z,3.83
2019-04-05T14:36:29.807Z,6.97
2019-04-05T14:38:58.522Z,6.77
2019-04-05T14:41:27.049Z,3.60
2019-04-05T14:43:55.764Z,4.50
2019-04-05T14:46:28.095Z,3.42
2019-04-05T14:48:55.236Z,3.50
2019-04-05T14:51:23.898Z,4.77
2019-04-05T14:53:52.395Z,2.43
2019-04-05T14:56:21.289Z,3.80
2019-04-05T14:58:50.339Z,4.93
2019-04-05T15:01:19.184Z,3.20
2019-04-05T15:03:47.974Z,4.90
2019-04-05T15:06:16.497Z,6.65
2019-04-05T15:08:47.751Z,3.60
2019-04-05T15:11:15.130Z,2.80
2019-04-05T15:13:43.946Z,4.47
2019-04-05T15:16:14.419Z,2.93
2019-04-05T15:18:42.508Z,4.30
2019-04-05T15:21:11.216Z,3.03
2019-04-05T15:23:41.320Z,5.30
2019-04-05T15:26:10.330Z,5.17
2019-04-05T15:28:39.103Z,8.13
2019-04-05T15:31:08.167Z,1.90
2019-04-05T15:33:37.002Z,4.93
2019-04-05T15:36:05.480Z,3.60
2019-04-05T15:38:34.205Z,4.67
2019-04-05T15:41:03.626Z,5.67
2019-04-05T15:43:32.162Z,4.03
2019-04-05T15:46:01.638Z,2.43
2019-04-05T15:48:30.156Z,3.30
2019-04-05T15:50:59.276Z,8.97
2019-04-05T15:53:31.894Z,3.37
2019-04-05T15:55:58.064Z,5.20
2019-04-05T15:58:26.636Z,3.37
2019-04-05T16:00:55.163Z,7.03
2019-04-05T16:03:23.812Z,7.67
2019-04-05T16:05:52.534Z,4.30
2019-04-05T16:08:21.053Z,8.07
2019-04-05T16:10:50.743Z,8.03
2019-04-05T16:13:19.508Z,6.30
2019-04-05T16:15:48.044Z,3.50
2019-04-05T16:18:16.543Z,4.33
2019-04-05T16:20:45.266Z,5.20
2019-04-05T16:23:14.003Z,7.03
2019-04-05T16:25:42.945Z,7.23
2019-04-05T16:28:11.523Z,5.03
2019-04-05T16:30:40.202Z,5.57
2019-04-05T16:33:08.842Z,4.10
2019-04-05T16:35:37.368Z,7.10
2019-04-05T16:38:05.926Z,3.73
2019-04-05T16:40:35.715Z,6.47
2019-04-05T16:43:04.512Z,4.17
2019-04-05T16:45:33.069Z,5.57
2019-04-05T16:48:01.556Z,5.37
2019-04-05T16:50:30.096Z,7.43
2019-04-05T16:52:58.424Z,6.47
2019-04-05T16:55:26.964Z,4.57
2019-04-05T16:57:55.482Z,6.13
2019-04-05T17:00:42.982Z,8.63
2019-04-05T17:03:11.886Z,4.87
2019-04-05T17:05:40.237Z,11.27
2019-04-05T17:08:09.036Z,6.40
2019-04-05T17:10:37.984Z,8.70
2019-04-05T17:13:06.804Z,5.67
2019-04-05T17:15:35.398Z,13.13
2019-04-05T17:18:06.192Z,5.73
2019-04-05T17:20:34.883Z,9.23
2019-04-05T17:23:03.917Z,9.67
2019-04-05T17:25:32.913Z,10.00
2019-04-05T17:28:02.826Z,5.00
2019-04-05T17:30:31.437Z,10.70
2019-04-05T17:33:00.194Z,10.55
2019-04-05T17:35:28.837Z,8.83
2019-04-05T17:37:57.876Z,9.23
2019-04-05T17:40:26.465Z,13.80
2019-04-05T17:42:54.985Z,8.17
2019-04-05T17:45:23.612Z,7.70
2019-04-05T17:47:52.472Z,12.03
2019-04-05T17:50:31.333Z,10.57
2019-04-05T17:53:11.374Z,14.93
2019-04-05T17:55:30.877Z,10.30
2019-04-05T17:57:59.744Z,13.60
2019-04-05T18:00:28.646Z,12.17
2019-04-05T18:02:57.347Z,6.57
2019-04-05T18:05:26.250Z,6.50
2019-04-05T18:07:54.950Z,13.63
2019-04-05T18:10:23.661Z,6.73
2019-04-05T18:12:52.124Z,7.80
2019-04-05T18:15:21.021Z,10.07
2019-04-05T18:17:50.491Z,12.43
2019-04-05T18:20:18.988Z,10.03
2019-04-05T18:22:47.537Z,13.30
2019-04-05T18:25:16.145Z,14.00
2019-04-05T18:27:45.087Z,13.40
2019-04-05T18:30:13.757Z,12.53
2019-04-05T18:32:42.489Z,16.90
2019-04-05T18:35:11.412Z,15.20
2019-04-05T18:37:39.861Z,15.97
2019-04-05T18:40:08.844Z,12.40
2019-04-05T18:42:37.692Z,11.83
2019-04-05T18:45:06.282Z,15.63
2019-04-05T18:47:35.211Z,9.07
2019-04-05T18:50:04.204Z,18.83
2019-04-05T18:52:32.870Z,14.03
2019-04-05T18:55:01.688Z,9.03
2019-04-05T18:57:30.268Z,15.87
2019-04-05T18:59:58.723Z,9.90
2019-04-05T19:02:27.211Z,17.93
2019-04-05T19:04:55.860Z,13.23
2019-04-05T19:07:25.005Z,12.20
2019-04-05T19:09:53.961Z,14.40
2019-04-05T19:12:23.513Z,15.67
2019-04-05T19:14:52.601Z,22.80
2019-04-05T19:17:24.207Z,20.07
2019-04-05T19:19:52.729Z,19.30
2019-04-05T19:22:21.479Z,14.47
2019-04-05T19:24:50.050Z,16.23
2019-04-05T19:27:19.058Z,14.27
2019-04-05T19:29:47.989Z,12.47
2019-04-05T19:49:54.434Z,16.00
2019-04-05T19:52:23.724Z,10.60
2019-04-05T19:54:53.305Z,13.90
2019-04-05T19:57:22.287Z,15.60
2019-04-05T19:59:51.371Z,13.67
2019-04-05T20:02:19.990Z,10.77
2019-04-05T20:04:48.743Z,27.20
2019-04-05T20:07:17.913Z,21.00
2019-04-05T20:09:46.368Z,16.87
2019-04-05T20:12:15.372Z,11.63
2019-04-05T20:14:43.768Z,22.33
2019-04-05T20:17:12.403Z,22.20
2019-04-05T20:19:40.789Z,19.23
2019-04-05T20:22:09.735Z,19.53
2019-04-05T20:24:39.094Z,14.43
2019-04-05T20:27:07.968Z,15.10
2019-04-05T20:29:36.788Z,17.60
2019-04-05T20:32:05.396Z,12.93
2019-04-05T20:34:34.156Z,15.40
2019-04-05T20:37:02.467Z,18.57
2019-04-05T20:39:31.275Z,14.87
2019-04-05T20:42:00.223Z,13.77
2019-04-05T20:44:28.800Z,12.30
2019-04-05T20:46:58.074Z,16.43
2019-04-05T20:49:26.588Z,14.97
2019-04-05T20:51:55.582Z,9.63
2019-04-05T20:54:25.529Z,15.73
2019-04-05T20:56:54.179Z,11.38
2019-04-05T20:59:22.901Z,14.57
2019-04-05T21:01:51.553Z,8.53
2019-04-05T21:04:20.117Z,14.93
2019-04-05T21:06:48.811Z,8.43
2019-04-05T21:09:17.265Z,11.27
2019-04-05T21:11:46.024Z,10.93
2019-04-05T21:14:14.332Z,8.17
2019-04-05T21:16:43.248Z,13.43
2019-04-05T21:19:12.026Z,11.87
2019-04-05T21:21:41.077Z,11.97
2019-04-05T21:24:09.786Z,10.73
2019-04-05T21:26:38.754Z,14.53
2019-04-05T21:29:07.488Z,8.23
2019-04-05T21:31:36.170Z,9.83
2019-04-05T21:34:04.999Z,12.17
2019-04-05T21:36:33.428Z,13.57
2019-04-05T21:39:01.738Z,9.60
2019-04-05T21:41:32.098Z,12.03
2019-04-05T21:44:00.743Z,7.77
2019-04-05T21:46:29.224Z,11.30
2019-04-05T21:48:57.998Z,11.13
2019-04-05T21:51:26.470Z,13.87
2019-04-05T21:53:54.869Z,11.80
2019-04-05T21:56:24.883Z,9.93
2019-04-05T21:58:53.473Z,12.73
2019-04-05T22:01:22.665Z,10.70
2019-04-05T22:03:53.649Z,11.50
2019-04-05T22:06:23.378Z,14.37
2019-04-05T22:08:51.800Z,17.17
2019-04-05T22:11:20.237Z,20.33
2019-04-05T22:13:48.626Z,10.00
2019-04-05T22:16:17.343Z,13.47
2019-04-05T22:18:45.696Z,8.08
2019-04-05T22:21:14.408Z,9.80
2019-04-05T22:23:42.925Z,9.63
2019-04-05T22:26:11.609Z,16.37
2019-04-05T22:28:40.261Z,9.47
2019-04-05T22:31:08.838Z,7.53
2019-04-05T22:33:37.826Z,8.57
2019-04-05T22:36:06.317Z,5.90
2019-04-05T22:38:35.000Z,7.43
2019-04-05T22:41:04.602Z,5.87
2019-04-05T22:43:33.557Z,7.33
2019-04-05T22:46:02.181Z,6.67
2019-04-05T22:48:30.867Z,11.07
2019-04-05T22:50:59.455Z,9.63
2019-04-05T22:53:27.902Z,9.27
2019-04-05T22:55:56.616Z,8.50
2019-04-05T22:58:25.294Z,10.23
2019-04-05T23:00:53.977Z,9.73
2019-04-05T23:03:22.639Z,18.43
2019-04-05T23:05:50.785Z,13.37
2019-04-05T23:08:19.429Z,8.87
2019-04-05T23:10:47.746Z,13.33
2019-04-05T23:13:16.240Z,8.83
2019-04-05T23:15:44.889Z,6.73
2019-04-05T23:18:14.787Z,9.43
2019-04-05T23:20:43.365Z,10.13
2019-04-05T23:23:11.757Z,10.43
2019-04-05T23:25:40.535Z,9.83
2019-04-05T23:28:09.119Z,10.67
2019-04-05T23:30:37.581Z,9.80
2019-04-05T23:33:06.014Z,11.93
2019-04-05T23:35:34.693Z,8.70
2019-04-05T23:38:03.265Z,8.93
2019-04-05T23:40:31.761Z,9.23
2019-04-05T23:43:00.783Z,12.57
2019-04-05T23:45:29.772Z,8.63
2019-04-05T23:47:58.403Z,7.47
2019-04-05T23:50:27.145Z,15.23
2019-04-05T23:52:56.137Z,6.73
2019-04-05T23:55:33.216Z,8.33
2019-04-05T23:57:55.333Z,11.03
